createdAt,value
2019-02-25T00:01:51.832Z,47.63
2019-02-25T00:04:21.690Z,43.47
2019-02-25T00:06:51.522Z,48.67
2019-02-25T00:09:21.389Z,51.10
2019-02-25T00:11:51.259Z,52.27
2019-02-25T00:14:21.169Z,52.47
2019-02-25T00:16:51.009Z,52.30
2019-02-25T00:19:20.857Z,49.63
2019-02-25T00:21:50.565Z,57.10
2019-02-25T00:24:20.312Z,53.70
2019-02-25T00:26:49.955Z,51.93
2019-02-25T00:29:19.639Z,52.50
2019-02-25T00:31:49.361Z,55.30
2019-02-25T00:34:19.036Z,57.60
2019-02-25T00:36:48.758Z,63.47
2019-02-25T00:39:18.432Z,56.70
2019-02-25T00:41:48.075Z,57.07
2019-02-25T00:44:17.760Z,60.30
2019-02-25T00:46:47.426Z,50.43
2019-02-25T00:49:17.100Z,50.73
2019-02-25T00:51:46.823Z,47.87
2019-02-25T00:54:19.512Z,53.77
2019-02-25T00:56:49.161Z,60.23
2019-02-25T00:59:19.956Z,64.07
2019-02-25T01:01:49.640Z,71.20
2019-02-25T01:04:19.320Z,69.83
2019-02-25T01:06:48.963Z,72.13
2019-02-25T01:09:18.642Z,82.40
2019-02-25T01:11:48.366Z,78.53
2019-02-25T01:14:18.051Z,75.10
2019-02-25T01:16:47.702Z,76.87
2019-02-25T01:19:18.951Z,71.37
2019-02-25T01:21:48.602Z,63.73
2019-02-25T01:24:18.359Z,66.20
2019-02-25T01:26:48.099Z,66.03
2019-02-25T01:29:17.861Z,60.83
2019-02-25T01:31:47.672Z,61.70
2019-02-25T01:34:20.529Z,47.80
2019-02-25T01:36:50.302Z,46.87
2019-02-25T01:39:20.401Z,45.10
2019-02-25T01:41:51.363Z,44.03
2019-02-25T01:44:24.888Z,47.63
2019-02-25T01:46:59.212Z,43.87
2019-02-25T01:49:32.386Z,45.00
2019-02-25T01:52:04.855Z,49.63
2019-02-25T01:54:36.387Z,40.93
2019-02-25T01:57:06.036Z,43.93
2019-02-25T01:59:36.101Z,40.50
2019-02-25T02:02:05.924Z,46.20
2019-02-25T02:04:35.730Z,42.90
2019-02-25T02:07:05.806Z,39.37
2019-02-25T02:09:35.603Z,38.13
2019-02-25T02:12:07.422Z,37.30
2019-02-25T02:14:38.362Z,39.57
2019-02-25T02:17:08.139Z,35.60
2019-02-25T02:19:37.914Z,37.10
2019-02-25T02:22:07.578Z,36.10
2019-02-25T02:24:37.381Z,37.10
2019-02-25T02:27:07.079Z,37.70
2019-02-25T02:29:36.749Z,38.67
2019-02-25T02:32:06.444Z,35.53
2019-02-25T02:34:36.224Z,53.57
2019-02-25T02:37:05.933Z,94.47
2019-02-25T02:39:35.642Z,125.90
2019-02-25T02:42:20.201Z,113.60
2019-02-25T02:44:52.410Z,173.27
2019-02-25T02:47:28.126Z,131.10
2019-02-25T02:50:00.455Z,118.17
2019-02-25T02:52:30.267Z,79.77
2019-02-25T02:55:01.704Z,76.50
2019-02-25T02:57:33.387Z,117.63
2019-02-25T03:00:03.180Z,134.00
2019-02-25T03:02:32.933Z,130.37
2019-02-25T03:05:02.709Z,144.67
2019-02-25T03:07:32.446Z,120.47
2019-02-25T03:10:02.221Z,79.83
2019-02-25T03:12:31.956Z,60.60
2019-02-25T03:15:02.507Z,49.23
2019-02-25T03:17:32.775Z,61.80
2019-02-25T03:20:05.858Z,57.70
2019-02-25T03:22:35.604Z,73.87
2019-02-25T03:25:08.325Z,67.20
2019-02-25T03:27:38.087Z,51.53
2019-02-25T03:30:11.043Z,52.97
2019-02-25T03:32:40.833Z,52.73
2019-02-25T03:35:10.664Z,69.20
2019-02-25T03:37:40.702Z,83.10
2019-02-25T03:40:15.408Z,86.03
2019-02-25T03:42:57.070Z,84.80
2019-02-25T03:45:27.048Z,90.47
2019-02-25T03:47:56.884Z,96.77
2019-02-25T03:50:26.762Z,118.53
2019-02-25T03:52:56.645Z,116.07
2019-02-25T03:55:26.679Z,145.20
2019-02-25T03:57:56.594Z,168.33
2019-02-25T04:00:26.914Z,104.83
2019-02-25T04:02:56.857Z,68.37
2019-02-25T04:05:26.784Z,65.70
2019-02-25T04:07:56.626Z,74.17
2019-02-25T04:10:26.410Z,73.03
2019-02-25T04:12:56.196Z,68.87
2019-02-25T04:15:27.540Z,62.47
2019-02-25T04:17:57.480Z,54.60
2019-02-25T04:20:27.266Z,54.70
2019-02-25T04:22:57.132Z,65.90
2019-02-25T04:25:26.849Z,59.20
2019-02-25T04:27:56.621Z,46.87
2019-02-25T04:30:26.509Z,40.67
2019-02-25T04:32:59.756Z,41.27
2019-02-25T04:35:29.534Z,39.43
2019-02-25T04:37:59.403Z,46.27
2019-02-25T04:40:29.124Z,37.40
2019-02-25T04:42:58.801Z,43.10
2019-02-25T04:45:28.530Z,44.40
2019-02-25T04:47:58.295Z,45.97
2019-02-25T04:50:28.115Z,63.90
2019-02-25T04:56:01.631Z,65.87
2019-02-25T04:58:31.693Z,64.87
2019-02-25T05:01:02.901Z,64.10
2019-02-25T05:03:33.817Z,56.97
2019-02-25T05:06:03.544Z,48.33
2019-02-25T05:08:33.346Z,48.90
2019-02-25T05:11:03.257Z,57.97
2019-02-25T05:13:36.024Z,51.37
2019-02-25T05:16:07.354Z,40.50
2019-02-25T05:18:54.267Z,41.00
2019-02-25T05:21:35.345Z,33.67
2019-02-25T05:24:07.567Z,39.77
2019-02-25T05:26:37.287Z,86.23
2019-02-25T05:29:07.010Z,122.43
2019-02-25T05:31:36.741Z,145.27
2019-02-25T05:34:18.512Z,115.37
2019-02-25T05:36:48.254Z,62.03
2019-02-25T05:39:18.278Z,53.07
2019-02-25T05:41:48.273Z,47.93
2019-02-25T05:44:19.836Z,42.90
2019-02-25T05:46:50.594Z,42.57
2019-02-25T05:49:20.540Z,41.70
2019-02-25T05:51:50.443Z,46.47
2019-02-25T05:54:20.384Z,59.60
2019-02-25T05:56:50.346Z,52.00
2019-02-25T05:59:20.306Z,56.43
2019-02-25T06:01:53.067Z,80.70
2019-02-25T06:04:23.027Z,83.30
2019-02-25T06:06:53.617Z,61.73
2019-02-25T06:09:23.470Z,57.73
2019-02-25T06:11:53.516Z,60.07
2019-02-25T06:14:23.748Z,64.07
2019-02-25T06:16:53.801Z,60.13
2019-02-25T06:19:23.761Z,60.23
2019-02-25T06:21:53.717Z,55.70
2019-02-25T06:24:26.780Z,56.10
2019-02-25T06:27:05.392Z,64.60
2019-02-25T06:29:38.595Z,60.70
2019-02-25T06:32:09.525Z,67.13
2019-02-25T06:34:39.461Z,70.47
2019-02-25T06:37:14.500Z,83.47
2019-02-25T06:39:57.645Z,115.97
2019-02-25T06:42:32.005Z,113.13
2019-02-25T06:45:03.716Z,132.77
2019-02-25T06:50:44.488Z,91.63
2019-02-25T06:53:18.627Z,100.73
2019-02-25T06:55:50.266Z,115.20
2019-02-25T06:58:20.278Z,96.37
2019-02-25T07:03:49.807Z,116.60
2019-02-25T07:06:23.832Z,95.60
2019-02-25T07:08:57.923Z,95.70
2019-02-25T07:11:34.910Z,85.37
2019-02-25T07:14:09.053Z,86.90
2019-02-25T07:16:43.052Z,82.87
2019-02-25T07:19:30.830Z,88.07
2019-02-25T07:22:05.950Z,88.83
2019-02-25T07:24:52.420Z,90.37
2019-02-25T07:27:22.512Z,72.73
2019-02-25T07:29:59.969Z,58.33
2019-02-25T07:32:33.012Z,56.37
2019-02-25T07:35:19.391Z,65.60
2019-02-25T07:37:56.477Z,58.20
2019-02-25T07:40:33.422Z,59.90
2019-02-25T07:43:07.594Z,68.80
2019-02-25T07:45:42.727Z,49.43
2019-02-25T07:48:14.303Z,44.00
2019-02-25T07:50:57.880Z,43.13
2019-02-25T07:53:48.866Z,37.20
2019-02-25T07:56:24.867Z,38.97
2019-02-25T07:59:17.046Z,42.27
2019-02-25T08:02:00.936Z,48.20
2019-02-25T08:04:35.370Z,63.33
2019-02-25T08:07:12.676Z,63.07
2019-02-25T08:09:44.850Z,56.67
2019-02-25T08:12:16.247Z,47.30
2019-02-25T08:14:59.826Z,46.03
2019-02-25T08:17:47.523Z,40.23
2019-02-25T08:20:21.839Z,45.23
2019-02-25T08:23:02.593Z,47.87
2019-02-25T08:25:39.959Z,93.03
2019-02-25T08:28:20.370Z,107.77
2019-02-25T08:30:54.702Z,70.70
2019-02-25T08:33:25.992Z,63.60
2019-02-25T08:36:09.348Z,57.27
2019-02-25T08:39:00.972Z,47.67
2019-02-25T08:41:35.125Z,40.53
2019-02-25T08:44:09.485Z,49.97
2019-02-25T08:46:52.842Z,54.57
2019-02-25T08:49:32.604Z,50.70
2019-02-25T08:52:02.229Z,43.40
2019-02-25T08:54:31.983Z,61.40
2019-02-25T08:57:01.704Z,93.00
2019-02-25T08:59:31.459Z,50.77
2019-02-25T09:02:01.112Z,51.67
2019-02-25T09:04:30.867Z,58.47
2019-02-25T09:07:00.542Z,55.37
2019-02-25T09:09:30.226Z,48.67
2019-02-25T09:11:59.867Z,54.50
2019-02-25T09:14:29.562Z,53.10
2019-02-25T09:16:59.216Z,53.27
2019-02-25T09:19:28.894Z,56.80
2019-02-25T09:22:00.106Z,53.80
2019-02-25T09:24:29.859Z,53.73
2019-02-25T09:26:59.563Z,57.03
2019-02-25T09:29:29.273Z,47.27
2019-02-25T09:31:58.923Z,47.43
2019-02-25T09:34:28.614Z,43.17
2019-02-25T09:36:58.269Z,45.40
2019-02-25T09:39:27.971Z,42.47
2019-02-25T09:41:57.653Z,47.63
2019-02-25T09:44:27.400Z,42.67
2019-02-25T09:46:57.126Z,46.30
2019-02-25T09:49:26.802Z,44.77
2019-02-25T09:51:56.587Z,45.70
2019-02-25T09:54:26.286Z,47.43
2019-02-25T09:56:55.979Z,49.30
2019-02-25T09:59:25.628Z,56.37
2019-02-25T10:01:55.308Z,51.27
2019-02-25T10:04:24.956Z,47.07
2019-02-25T10:07:02.199Z,47.47
2019-02-25T10:09:29.863Z,48.53
2019-02-25T10:12:01.169Z,47.30
2019-02-25T10:14:30.884Z,49.80
2019-02-25T10:17:00.557Z,50.97
2019-02-25T10:19:30.207Z,72.93
2019-02-25T10:21:59.880Z,55.30
2019-02-25T10:24:29.526Z,60.03
2019-02-25T10:26:59.277Z,59.67
2019-02-25T10:29:29.103Z,63.03
2019-02-25T10:32:00.176Z,57.43
2019-02-25T10:34:30.134Z,49.97
2019-02-25T10:36:59.879Z,57.00
2019-02-25T10:39:29.547Z,56.50
2019-02-25T10:42:00.053Z,50.97
2019-02-25T10:44:31.923Z,55.57
2019-02-25T10:47:01.960Z,70.30
2019-02-25T10:49:33.584Z,45.43
2019-02-25T10:52:03.083Z,44.30
2019-02-25T10:54:32.754Z,39.53
2019-02-25T10:57:02.427Z,64.83
2019-02-25T10:59:34.449Z,53.60
2019-02-25T11:02:03.547Z,41.63
2019-02-25T11:04:33.280Z,36.53
2019-02-25T11:07:05.087Z,31.63
2019-02-25T11:09:40.277Z,29.80
2019-02-25T11:12:10.407Z,29.67
2019-02-25T11:14:41.060Z,36.03
2019-02-25T11:17:11.579Z,37.10
2019-02-25T11:19:41.373Z,34.83
2019-02-25T11:22:12.131Z,39.50
2019-02-25T11:24:42.412Z,40.07
2019-02-25T11:27:12.185Z,32.70
2019-02-25T11:29:42.510Z,36.07
2019-02-25T11:32:13.295Z,31.47
2019-02-25T11:34:42.980Z,38.03
2019-02-25T11:37:14.406Z,36.67
2019-02-25T11:39:44.221Z,32.97
2019-02-25T11:42:17.664Z,32.87
2019-02-25T11:44:45.462Z,38.60
2019-02-25T11:47:15.252Z,21.07
2019-02-25T11:49:45.325Z,25.23
2019-02-25T11:52:15.054Z,27.60
2019-02-25T11:54:44.764Z,28.47
2019-02-25T11:57:14.450Z,30.40
2019-02-25T11:59:44.173Z,20.90
2019-02-25T12:02:14.089Z,22.33
2019-02-25T12:04:43.837Z,21.63
2019-02-25T12:07:13.641Z,23.33
2019-02-25T12:09:43.398Z,23.60
2019-02-25T12:12:13.160Z,18.97
2019-02-25T12:14:42.957Z,15.90
2019-02-25T12:17:12.812Z,13.27
2019-02-25T12:19:42.576Z,20.87
2019-02-25T12:22:12.344Z,23.47
2019-02-25T12:24:42.111Z,23.70
2019-02-25T12:27:13.319Z,11.37
2019-02-25T12:29:45.821Z,18.17
2019-02-25T12:32:15.575Z,15.20
2019-02-25T12:34:45.422Z,17.70
2019-02-25T12:37:15.337Z,22.53
2019-02-25T12:39:46.692Z,31.23
2019-02-25T12:42:16.484Z,25.90
2019-02-25T12:44:46.213Z,20.53
2019-02-25T12:47:16.226Z,21.87
2019-02-25T12:49:46.053Z,20.23
2019-02-25T12:52:15.751Z,20.83
2019-02-25T12:54:45.557Z,20.20
2019-02-25T12:57:18.279Z,18.20
2019-02-25T12:59:48.154Z,14.60
2019-02-25T13:02:17.898Z,18.97
2019-02-25T13:04:47.739Z,16.20
2019-02-25T13:07:17.453Z,19.83
2019-02-25T13:09:47.232Z,16.27
2019-02-25T13:12:16.932Z,16.33
2019-02-25T13:14:46.684Z,17.53
2019-02-25T13:17:28.273Z,17.60
2019-02-25T13:20:01.052Z,14.03
2019-02-25T13:22:30.797Z,31.03
2019-02-25T13:25:01.194Z,40.27
2019-02-25T13:27:31.999Z,13.83
2019-02-25T13:30:01.834Z,15.73
2019-02-25T13:32:33.419Z,21.17
2019-02-25T13:35:03.309Z,22.50
2019-02-25T13:37:34.054Z,15.53
2019-02-25T13:40:11.419Z,16.53
2019-02-25T13:42:41.253Z,23.87
2019-02-25T13:45:22.495Z,19.27
2019-02-25T13:47:55.549Z,21.60
2019-02-25T13:50:28.178Z,14.90
2019-02-25T13:52:59.450Z,20.70
2019-02-25T13:55:29.301Z,13.93
2019-02-25T13:57:59.407Z,14.97
2019-02-25T14:00:29.436Z,16.17
2019-02-25T14:02:59.329Z,25.23
2019-02-25T14:05:30.727Z,39.57
2019-02-25T14:08:00.575Z,22.70
2019-02-25T14:10:33.048Z,16.10
2019-02-25T14:13:04.991Z,20.13
2019-02-25T14:15:37.319Z,23.27
2019-02-25T14:18:07.111Z,43.40
2019-02-25T14:20:36.982Z,28.37
2019-02-25T14:23:07.955Z,56.73
2019-02-25T14:25:38.449Z,49.90
2019-02-25T14:28:09.614Z,51.47
2019-02-25T14:30:39.404Z,39.60
2019-02-25T14:33:09.322Z,23.13
2019-02-25T14:35:39.195Z,14.50
2019-02-25T14:38:15.339Z,10.60
2019-02-25T14:40:44.878Z,6.33
2019-02-25T14:43:20.575Z,10.03
2019-02-25T14:45:53.616Z,5.10
2019-02-25T14:48:27.513Z,9.33
2019-02-25T14:50:56.734Z,7.87
2019-02-25T14:53:26.537Z,8.70
2019-02-25T14:55:58.507Z,8.23
2019-02-25T14:58:31.391Z,4.87
2019-02-25T15:00:59.401Z,4.33
2019-02-25T15:03:31.703Z,5.53
2019-02-25T15:06:01.463Z,3.03
2019-02-25T15:08:31.260Z,4.17
2019-02-25T15:11:02.298Z,8.00
2019-02-25T15:13:34.944Z,8.30
2019-02-25T15:16:05.420Z,4.13
2019-02-25T15:18:37.532Z,16.33
2019-02-25T15:21:15.700Z,6.87
2019-02-25T15:23:46.446Z,6.60
2019-02-25T15:26:17.366Z,12.10
2019-02-25T15:28:51.695Z,19.70
2019-02-25T15:31:19.475Z,20.67
2019-02-25T15:33:49.266Z,20.47
2019-02-25T15:36:20.533Z,25.30
2019-02-25T15:38:50.515Z,34.73
2019-02-25T15:41:20.287Z,31.83
2019-02-25T15:43:50.088Z,24.63
2019-02-25T15:46:22.170Z,25.50
2019-02-25T15:48:51.361Z,21.73
2019-02-25T15:51:21.153Z,19.30
2019-02-25T15:53:51.894Z,18.83
2019-02-25T15:56:22.453Z,18.23
2019-02-25T15:58:52.308Z,23.97
2019-02-25T16:01:22.155Z,15.73
2019-02-25T16:03:51.973Z,15.50
2019-02-25T16:06:24.814Z,17.90
2019-02-25T16:08:54.427Z,19.00
2019-02-25T16:11:25.818Z,23.73
2019-02-25T16:13:57.832Z,16.40
2019-02-25T16:16:40.432Z,25.00
2019-02-25T16:19:10.184Z,33.67
2019-02-25T16:21:41.072Z,41.90
2019-02-25T16:24:12.276Z,69.90
2019-02-25T16:26:42.808Z,103.03
2019-02-25T16:29:13.474Z,112.67
2019-02-25T16:31:46.051Z,86.40
2019-02-25T16:37:33.296Z,66.47
2019-02-25T16:40:05.738Z,59.67
2019-02-25T16:42:34.754Z,100.23
2019-02-25T16:45:09.568Z,127.63
2019-02-25T16:47:40.687Z,119.50
2019-02-25T16:50:14.185Z,135.00
2019-02-25T16:52:45.585Z,158.90
2019-02-25T16:55:20.155Z,160.63
2019-02-25T16:57:51.018Z,137.20
2019-02-25T17:00:29.400Z,151.20
2019-02-25T17:02:59.210Z,119.93
2019-02-25T17:08:27.709Z,96.23
2019-02-25T17:10:59.816Z,90.27
2019-02-25T17:17:07.303Z,73.00
2019-02-25T17:49:45.499Z,111.03
2019-02-25T17:52:18.962Z,113.87
2019-02-25T18:01:58.305Z,76.77
2019-02-25T18:31:15.575Z,163.70
2019-02-25T18:40:38.721Z,95.97
2019-02-25T19:19:12.449Z,38.27
2019-02-25T19:21:57.732Z,35.63
2019-02-25T19:40:43.103Z,56.47
2019-02-25T19:56:40.644Z,33.20
2019-02-25T19:59:29.197Z,36.63
2019-02-25T20:05:49.718Z,34.97
2019-02-25T20:09:07.497Z,43.80
2019-02-25T20:11:45.153Z,33.60
2019-02-25T20:14:40.220Z,31.00
2019-02-25T20:17:13.748Z,30.83
2019-02-25T20:19:46.300Z,33.50
2019-02-25T20:46:11.129Z,50.90
2019-02-25T21:13:50.219Z,43.47
2019-02-25T21:19:44.370Z,24.97
2019-02-25T21:22:27.417Z,21.17
2019-02-25T21:32:36.269Z,23.30
2019-02-25T21:34:37.795Z,28.00
2019-02-25T21:37:15.555Z,29.80
2019-02-25T21:40:24.570Z,34.83
2019-02-25T21:43:29.518Z,30.50
2019-02-25T21:49:59.101Z,24.17
2019-02-25T21:55:35.156Z,23.37
2019-02-25T21:58:29.870Z,17.83
2019-02-25T22:01:18.760Z,18.23
2019-02-25T22:07:38.286Z,20.50
2019-02-25T22:10:23.330Z,22.47
2019-02-25T22:12:53.082Z,23.23
2019-02-25T22:15:22.784Z,25.13
2019-02-25T22:17:53.465Z,24.30
2019-02-25T22:20:25.104Z,19.63
2019-02-25T22:22:58.719Z,17.93
2019-02-25T22:25:31.488Z,21.43
2019-02-25T22:28:03.218Z,21.17
2019-02-25T22:30:35.342Z,20.13
2019-02-25T22:33:25.118Z,22.53
2019-02-25T22:35:42.599Z,16.27
2019-02-25T22:38:13.505Z,20.10
2019-02-25T22:40:43.302Z,20.63
2019-02-25T22:43:14.200Z,19.20
2019-02-25T22:45:44.462Z,20.73
2019-02-25T22:48:16.214Z,21.20
2019-02-25T22:50:45.706Z,27.17
2019-02-25T22:53:15.447Z,22.10
2019-02-25T22:55:47.317Z,23.57
2019-02-25T22:58:17.088Z,21.83
2019-02-25T23:00:50.535Z,22.23
2019-02-25T23:03:22.631Z,15.93
2019-02-25T23:05:53.397Z,23.03
2019-02-25T23:08:25.745Z,17.57
2019-02-25T23:10:54.905Z,16.47
2019-02-25T23:13:25.035Z,15.53
2019-02-25T23:15:57.041Z,23.20
2019-02-25T23:18:28.117Z,21.83
2019-02-25T23:21:01.023Z,21.77
2019-02-25T23:23:32.886Z,21.03
2019-02-25T23:26:02.532Z,20.53
2019-02-25T23:28:32.296Z,20.83
2019-02-25T23:31:02.101Z,17.23
2019-02-25T23:33:31.901Z,19.03
2019-02-25T23:36:01.697Z,19.57
2019-02-25T23:38:31.470Z,18.37
2019-02-25T23:41:05.078Z,18.80
2019-02-25T23:43:37.878Z,20.10
2019-02-25T23:46:08.745Z,24.93
2019-02-25T23:48:41.079Z,19.93
2019-02-25T23:51:09.869Z,23.47
2019-02-25T23:53:39.666Z,16.83
2019-02-25T23:56:11.467Z,16.80
2019-02-25T23:58:42.952Z,19.13
